Time;durP1;ratioP1;P1;durP2;ratioP2;P2;SDS_P1;SDS_P2;PMS_P1;PMS_P2;Temp;Humidity;BMP_temperature;BMP_pressure;BME280_temperature;BME280_humidity;BME280_pressure;Samples;Min_cycle;Max_cycle;Signal;HPM_P1;HPM_P2
2022/07/28 00:00:46;;;;;;;5.03;4.20;;;26.00;52.70;;;;;;5014104;28;20478;-12
2022/07/28 00:03:12;;;;;;;5.00;3.80;;;26.00;52.80;;;;;;5013816;28;20068;-12
2022/07/28 00:05:40;;;;;;;5.35;4.03;;;26.00;52.80;;;;;;5013986;28;20030;-12
2022/07/28 00:08:06;;;;;;;4.15;3.75;;;25.90;53.00;;;;;;5013985;28;20113;-13
2022/07/28 00:10:32;;;;;;;5.10;3.53;;;25.90;53.00;;;;;;5013709;28;20026;-13
2022/07/28 00:12:58;;;;;;;5.95;3.85;;;25.90;53.10;;;;;;5014002;28;20401;-12
2022/07/28 00:15:26;;;;;;;3.95;3.53;;;25.80;53.10;;;;;;5013582;28;20049;-13
2022/07/28 00:17:51;;;;;;;4.20;3.70;;;25.80;53.30;;;;;;5013460;28;20117;-13
2022/07/28 00:20:17;;;;;;;5.22;3.60;;;25.80;53.50;;;;;;5013458;28;20141;-13
2022/07/28 00:22:44;;;;;;;5.32;3.85;;;25.70;53.80;;;;;;5013774;28;20033;-13
2022/07/28 00:25:11;;;;;;;6.03;3.85;;;25.60;53.80;;;;;;5013555;28;20034;-13
2022/07/28 00:27:38;;;;;;;5.25;3.90;;;25.60;54.00;;;;;;5012682;28;20406;-13
2022/07/28 00:30:08;;;;;;;4.70;3.60;;;25.50;54.10;;;;;;5013730;28;20104;-13
2022/07/28 00:32:34;;;;;;;4.05;3.65;;;25.50;54.30;;;;;;5013420;28;20041;-13
2022/07/28 00:35:01;;;;;;;6.22;3.90;;;25.50;54.20;;;;;;5013576;28;20095;-13
2022/07/28 00:37:26;;;;;;;5.13;3.80;;;25.40;54.40;;;;;;5013391;28;20030;-13
2022/07/28 00:39:52;;;;;;;5.13;3.70;;;25.40;54.70;;;;;;5012958;28;20486;-13
2022/07/28 00:42:20;;;;;;;3.80;3.40;;;25.40;54.70;;;;;;5013055;28;20081;-13
2022/07/28 00:44:47;;;;;;;3.75;3.35;;;25.40;54.70;;;;;;5013184;28;20052;-12
2022/07/28 00:47:13;;;;;;;6.03;3.47;;;25.40;54.80;;;;;;5013539;28;20057;-13
2022/07/28 00:49:39;;;;;;;5.18;3.70;;;25.40;54.80;;;;;;5013535;28;20032;-12
2022/07/28 00:52:08;;;;;;;5.22;3.60;;;25.40;55.00;;;;;;5013308;28;20026;-12
2022/07/28 00:54:34;;;;;;;5.32;3.63;;;25.30;55.10;;;;;;5013102;28;20037;-12
2022/07/28 00:57:01;;;;;;;3.92;3.50;;;25.30;55.20;;;;;;5013385;28;20038;-12
2022/07/28 00:59:26;;;;;;;3.90;3.20;;;25.20;55.20;;;;;;5013477;28;20110;-13
2022/07/28 01:01:53;;;;;;;4.25;3.30;;;25.20;55.20;;;;;;5013351;28;20112;-13
2022/07/28 01:04:21;;;;;;;4.40;2.97;;;25.20;55.20;;;;;;5013159;28;20033;-13
2022/07/28 01:06:50;;;;;;;4.93;3.35;;;25.20;55.20;;;;;;5013416;28;20060;-13
2022/07/28 01:09:35;;;;;;;3.88;3.33;;;25.20;55.30;;;;;;5013686;28;20038;-13
2022/07/28 01:12:26;;;;;;;3.63;3.03;;;25.20;55.80;;;;;;5013349;28;20030;-12
2022/07/28 01:15:26;;;;;;;4.78;3.00;;;25.10;55.70;;;;;;5012981;28;20371;-13
2022/07/28 01:17:58;;;;;;;4.10;2.95;;;25.10;55.30;;;;;;5012995;28;20508;-12
2022/07/28 01:20:36;;;;;;;4.90;3.30;;;25.10;55.20;;;;;;5012819;28;20022;-13
2022/07/28 01:23:20;;;;;;;3.67;2.83;;;25.10;55.40;;;;;;5013206;28;20588;-13
2022/07/28 01:26:09;;;;;;;3.90;2.95;;;25.00;55.30;;;;;;5012800;28;20030;-13
2022/07/28 01:28:53;;;;;;;3.30;2.80;;;25.00;55.50;;;;;;5012725;28;20030;-12
2022/07/28 01:31:24;;;;;;;4.10;3.15;;;25.00;55.30;;;;;;5013653;28;20030;-13
2022/07/28 01:33:59;;;;;;;4.10;2.83;;;25.00;55.30;;;;;;5013032;28;20042;-12
2022/07/28 01:36:32;;;;;;;3.88;2.95;;;25.00;55.60;;;;;;5012888;28;20133;-13
2022/07/28 01:39:00;;;;;;;3.88;3.00;;;25.00;55.50;;;;;;5015978;28;20053;-13
2022/07/28 01:41:29;;;;;;;3.78;3.00;;;24.90;55.60;;;;;;5016222;28;20037;-13
2022/07/28 01:44:03;;;;;;;4.40;3.05;;;24.90;55.80;;;;;;5016477;28;20030;-13
2022/07/28 01:46:31;;;;;;;4.13;2.75;;;24.90;56.00;;;;;;5016161;28;20084;-12
2022/07/28 01:48:58;;;;;;;3.67;3.00;;;24.90;56.00;;;;;;5016678;28;20029;-13
2022/07/28 01:51:28;;;;;;;3.47;2.92;;;24.80;56.20;;;;;;5016091;28;20508;-13
2022/07/28 01:53:57;;;;;;;3.00;2.70;;;24.80;56.40;;;;;;5016414;28;20034;-13
2022/07/28 01:56:26;;;;;;;4.28;3.08;;;24.80;56.50;;;;;;5015840;28;20485;-12
2022/07/28 01:58:54;;;;;;;5.25;3.10;;;24.70;56.70;;;;;;5016268;28;20022;-13
2022/07/28 02:01:22;;;;;;;5.18;2.90;;;24.70;56.90;;;;;;5015947;28;20037;-12
2022/07/28 02:03:50;;;;;;;3.63;2.90;;;24.60;56.90;;;;;;5016245;28;20014;-13
2022/07/28 02:06:19;;;;;;;3.83;3.30;;;24.60;57.00;;;;;;5014573;28;20044;-13
2022/07/28 02:08:47;;;;;;;4.38;3.20;;;24.60;57.50;;;;;;5015806;28;20492;-13
2022/07/28 02:13:58;;;;;;;5.30;3.65;;;24.40;58.20;;;;;;5015952;28;20057;-13
2022/07/28 02:16:26;;;;;;;5.35;3.25;;;24.40;58.70;;;;;;5014245;28;20426;-13
2022/07/28 02:18:56;;;;;;;4.35;3.42;;;24.30;58.70;;;;;;5015649;28;20501;-13
2022/07/28 02:21:25;;;;;;;4.38;3.38;;;24.20;58.70;;;;;;5015569;28;20053;-12
2022/07/28 02:23:52;;;;;;;4.15;3.45;;;24.20;58.70;;;;;;5015837;28;20030;-12
2022/07/28 02:26:27;;;;;;;4.35;3.30;;;24.10;59.00;;;;;;5015201;28;20054;-12
2022/07/28 02:28:57;;;;;;;3.80;3.20;;;24.00;59.20;;;;;;5015765;28;20092;-13
2022/07/28 02:31:27;;;;;;;4.28;3.22;;;24.00;59.60;;;;;;5015403;28;20030;-12
2022/07/28 02:33:57;;;;;;;4.45;3.13;;;23.90;59.50;;;;;;5015778;28;20105;-13
2022/07/28 02:36:33;;;;;;;4.50;2.80;;;23.90;59.60;;;;;;5015321;28;20044;-12
2022/07/28 02:39:06;;;;;;;4.38;3.40;;;23.90;59.80;;;;;;5015078;28;20058;-13
2022/07/28 02:41:38;;;;;;;4.30;3.30;;;23.90;59.90;;;;;;5015223;28;20059;-12
2022/07/28 02:44:10;;;;;;;5.88;3.63;;;23.80;60.30;;;;;;5015225;28;20030;-12
2022/07/28 02:46:42;;;;;;;4.53;3.28;;;23.80;61.00;;;;;;5014987;28;20492;-13
2022/07/28 02:49:15;;;;;;;4.93;3.63;;;23.70;61.00;;;;;;5014559;28;20032;-12
2022/07/28 02:51:42;;;;;;;3.65;3.20;;;23.70;61.20;;;;;;5015387;28;20022;-12
2022/07/28 02:54:11;;;;;;;3.65;3.17;;;23.60;61.20;;;;;;5015039;28;20018;-12
2022/07/28 02:56:39;;;;;;;5.95;3.50;;;23.60;61.00;;;;;;5014647;28;20375;-13
2022/07/28 02:59:06;;;;;;;4.35;3.25;;;23.50;61.00;;;;;;5015646;28;20445;-13
2022/07/28 03:01:33;;;;;;;4.22;3.05;;;23.50;61.20;;;;;;5014872;28;20036;-13
2022/07/28 03:04:00;;;;;;;4.68;3.13;;;23.50;61.10;;;;;;5015020;28;20363;-13
2022/07/28 03:06:26;;;;;;;3.95;3.30;;;23.40;61.20;;;;;;5014628;28;20069;-13
2022/07/28 03:08:52;;;;;;;4.90;3.17;;;23.40;61.10;;;;;;5015050;28;20377;-13
2022/07/28 03:11:18;;;;;;;3.60;3.10;;;23.40;61.10;;;;;;5014561;28;20036;-13
2022/07/28 03:13:44;;;;;;;5.20;3.17;;;23.40;61.10;;;;;;5014763;28;20036;-13
2022/07/28 03:16:10;;;;;;;3.95;3.30;;;23.40;61.20;;;;;;5014929;28;20400;-13
2022/07/28 03:18:36;;;;;;;4.40;2.90;;;23.30;61.40;;;;;;5014397;28;20034;-13
2022/07/28 03:21:02;;;;;;;5.72;3.20;;;23.30;61.20;;;;;;5014751;28;20026;-12
2022/07/28 03:23:40;;;;;;;3.88;3.20;;;23.30;61.30;;;;;;5015143;28;20022;-13
2022/07/28 03:26:16;;;;;;;4.90;3.25;;;23.30;61.70;;;;;;5014362;28;20026;-12
2022/07/28 03:28:43;;;;;;;4.20;3.05;;;23.20;61.50;;;;;;5014372;28;20022;-12
2022/07/28 03:31:11;;;;;;;6.00;3.03;;;23.30;61.30;;;;;;5014630;28;20042;-13
2022/07/28 03:33:38;;;;;;;5.35;3.55;;;23.20;61.40;;;;;;5014214;28;20109;-13
2022/07/28 03:36:10;;;;;;;4.10;3.60;;;23.20;61.20;;;;;;5014517;28;20030;-12
2022/07/28 03:38:42;;;;;;;4.10;3.20;;;23.20;61.30;;;;;;5013758;28;20064;-13
2022/07/28 03:41:10;;;;;;;5.43;3.50;;;23.20;61.50;;;;;;5014112;28;20072;-12
2022/07/28 03:43:37;;;;;;;4.75;3.20;;;23.20;61.60;;;;;;5014451;28;20033;-12
2022/07/28 03:46:04;;;;;;;6.03;3.50;;;23.20;61.40;;;;;;5014157;28;20540;-12
2022/07/28 03:48:31;;;;;;;4.57;3.45;;;23.20;61.90;;;;;;5013772;28;20133;-12
2022/07/28 03:50:57;;;;;;;3.78;3.10;;;23.20;61.60;;;;;;5014420;28;20025;-12
2022/07/28 03:53:28;;;;;;;3.53;3.08;;;23.20;61.70;;;;;;5013864;28;20088;-12
2022/07/28 03:55:55;;;;;;;5.15;3.40;;;23.20;61.60;;;;;;5013790;28;20040;-12
2022/07/28 03:58:23;;;;;;;5.15;4.00;;;23.20;61.70;;;;;;5013722;28;20095;-13
2022/07/28 04:00:50;;;;;;;4.50;3.47;;;23.30;61.50;;;;;;5014589;28;20083;-12
2022/07/28 04:03:17;;;;;;;6.03;3.72;;;23.20;61.60;;;;;;5013767;28;20025;-13
2022/07/28 04:05:44;;;;;;;6.22;3.75;;;23.30;62.00;;;;;;5014246;28;20060;-12
2022/07/28 04:08:10;;;;;;;7.78;4.18;;;23.30;61.60;;;;;;5013680;28;20040;-12
2022/07/28 04:10:36;;;;;;;5.03;3.90;;;23.30;61.70;;;;;;5013387;28;20030;-13
2022/07/28 04:13:03;;;;;;;6.00;3.90;;;23.30;61.60;;;;;;5013966;28;20041;-12
2022/07/28 04:15:30;;;;;;;7.63;3.95;;;23.40;61.50;;;;;;5013715;28;20033;-12
2022/07/28 04:17:57;;;;;;;6.78;4.10;;;23.40;61.30;;;;;;5013868;28;20037;-12
2022/07/28 04:20:24;;;;;;;7.38;4.20;;;23.40;61.30;;;;;;5013291;28;20121;-12
2022/07/28 04:22:52;;;;;;;7.28;4.00;;;23.40;61.30;;;;;;5013745;28;20033;-13
2022/07/28 04:25:20;;;;;;;7.65;4.28;;;23.50;60.90;;;;;;5011967;28;20423;-13
2022/07/28 04:27:47;;;;;;;5.88;3.97;;;23.40;60.90;;;;;;5013911;28;20041;-13
2022/07/28 04:30:16;;;;;;;6.90;3.97;;;23.50;60.80;;;;;;5013504;28;20042;-12
2022/07/28 04:32:47;;;;;;;5.43;4.00;;;23.50;60.90;;;;;;5012106;28;20034;-13
2022/07/28 04:35:13;;;;;;;9.98;3.97;;;23.50;61.00;;;;;;5013397;28;20029;-13
2022/07/28 04:37:40;;;;;;;6.00;4.22;;;23.40;61.00;;;;;;5013372;28;20033;-14
2022/07/28 04:40:08;;;;;;;8.35;4.60;;;23.40;61.00;;;;;;5013190;28;20046;-13
2022/07/28 04:42:37;;;;;;;10.75;4.95;;;23.40;61.10;;;;;;5013308;28;20543;-13
2022/07/28 04:45:05;;;;;;;5.93;4.35;;;23.40;61.30;;;;;;5013604;28;20018;-13
2022/07/28 04:47:31;;;;;;;7.70;5.25;;;23.40;61.20;;;;;;5013246;28;20030;-13
2022/07/28 04:49:57;;;;;;;7.70;4.50;;;23.40;61.80;;;;;;5013227;28;20596;-13
2022/07/28 04:52:24;;;;;;;7.97;4.95;;;23.40;61.40;;;;;;5013134;28;20031;-13
2022/07/28 04:54:50;;;;;;;5.47;4.70;;;23.40;61.40;;;;;;5013355;28;20044;-13
2022/07/28 04:57:16;;;;;;;8.00;4.72;;;23.50;61.50;;;;;;5013109;28;20124;-13
2022/07/28 04:59:42;;;;;;;7.47;4.90;;;23.60;61.20;;;;;;5013310;28;20069;-12
2022/07/28 05:02:08;;;;;;;8.77;5.25;;;23.70;61.20;;;;;;5013321;28;20030;-15
2022/07/28 05:04:35;;;;;;;5.57;4.70;;;23.80;61.00;;;;;;5012931;28;20045;-14
2022/07/28 05:07:01;;;;;;;7.97;4.82;;;23.80;60.90;;;;;;5011898;28;20145;-14
2022/07/28 05:09:27;;;;;;;14.27;6.65;;;23.90;60.90;;;;;;5012891;28;20382;-15
2022/07/28 05:11:53;;;;;;;15.43;6.18;;;23.90;60.80;;;;;;5013065;28;20386;-13
2022/07/28 05:14:19;;;;;;;7.75;5.03;;;23.90;60.50;;;;;;5016400;28;20029;-13
2022/07/28 05:16:45;;;;;;;7.70;5.22;;;23.90;60.30;;;;;;5017075;28;20036;-13
2022/07/28 05:19:11;;;;;;;11.93;5.78;;;23.90;60.20;;;;;;5016751;28;20028;-13
2022/07/28 05:21:37;;;;;;;8.77;5.55;;;23.90;60.10;;;;;;5016751;28;20026;-13
2022/07/28 05:24:04;;;;;;;8.73;5.00;;;23.90;60.00;;;;;;5017109;28;20030;-12
2022/07/28 05:26:31;;;;;;;8.93;5.78;;;23.90;59.50;;;;;;5016615;28;20034;-13
2022/07/28 05:28:57;;;;;;;8.02;5.03;;;23.90;59.50;;;;;;5016866;28;20105;-13
2022/07/28 05:31:23;;;;;;;10.77;5.18;;;23.90;59.20;;;;;;5016584;28;20029;-13
2022/07/28 05:33:49;;;;;;;9.80;4.82;;;23.90;59.10;;;;;;5016475;28;20025;-12
2022/07/28 05:36:15;;;;;;;8.18;4.95;;;24.00;59.00;;;;;;5016373;28;20041;-13
2022/07/28 05:38:41;;;;;;;6.55;5.05;;;24.00;59.00;;;;;;5016105;28;20064;-14
2022/07/28 05:41:07;;;;;;;9.15;5.07;;;24.20;58.70;;;;;;5016318;28;20022;-12
2022/07/28 05:43:37;;;;;;;8.57;4.93;;;24.20;58.60;;;;;;5015115;28;20024;-12
2022/07/28 05:46:04;;;;;;;9.07;5.38;;;24.40;58.30;;;;;;5016570;28;20030;-12
2022/07/28 05:48:31;;;;;;;10.15;5.40;;;24.60;57.90;;;;;;5014738;28;20397;-13
2022/07/28 05:50:56;;;;;;;7.93;5.18;;;24.70;57.40;;;;;;5014984;28;20030;-13
2022/07/28 05:53:23;;;;;;;10.15;5.30;;;24.90;57.00;;;;;;5016524;28;20057;-12
2022/07/28 05:55:50;;;;;;;7.78;5.10;;;25.10;56.50;;;;;;5016030;28;20033;-12
2022/07/28 05:58:20;;;;;;;9.10;5.45;;;25.30;55.90;;;;;;5015927;28;20030;-13
2022/07/28 06:00:46;;;;;;;10.93;5.72;;;25.40;55.40;;;;;;5016793;28;20114;-12
2022/07/28 06:03:12;;;;;;;7.65;5.10;;;25.50;55.10;;;;;;5016265;28;20102;-13
2022/07/28 06:05:38;;;;;;;7.53;5.07;;;25.70;54.40;;;;;;5015877;28;20034;-12
2022/07/28 06:08:05;;;;;;;7.75;5.05;;;25.80;53.90;;;;;;5016182;28;20029;-12
2022/07/28 06:13:17;;;;;;;7.47;5.13;;;26.00;53.40;;;;;;5016192;28;20104;-13
2022/07/28 06:15:46;;;;;;;10.23;5.40;;;26.20;52.50;;;;;;5015957;28;20036;-14
2022/07/28 06:18:12;;;;;;;11.18;5.85;;;26.30;52.70;;;;;;5015898;28;20394;-15
2022/07/28 06:20:38;;;;;;;9.57;5.15;;;26.40;52.20;;;;;;5014151;28;20022;-13
2022/07/28 06:23:04;;;;;;;10.75;5.47;;;26.40;52.50;;;;;;5015558;28;20029;-13
2022/07/28 06:25:31;;;;;;;8.10;5.20;;;26.60;51.80;;;;;;5014582;28;20034;-14
2022/07/28 06:27:59;;;;;;;9.68;5.07;;;26.70;51.60;;;;;;5015492;28;20066;-13
2022/07/28 06:30:26;;;;;;;6.95;4.72;;;26.80;50.90;;;;;;5015313;28;20044;-14
2022/07/28 06:32:52;;;;;;;12.27;5.18;;;26.90;50.50;;;;;;5015345;28;20041;-14
2022/07/28 06:35:19;;;;;;;9.13;5.43;;;26.90;49.50;;;;;;5015761;28;20026;-13
2022/07/28 06:37:47;;;;;;;7.07;4.93;;;27.10;49.70;;;;;;5015661;28;20040;-14
2022/07/28 06:40:14;;;;;;;8.20;5.00;;;27.20;50.00;;;;;;5015051;28;20508;-12
2022/07/28 06:42:41;;;;;;;7.60;4.80;;;27.20;49.40;;;;;;5015734;28;20030;-14
2022/07/28 06:45:09;;;;;;;7.75;5.25;;;27.40;49.20;;;;;;5015168;28;20026;-15
2022/07/28 06:47:36;;;;;;;7.40;4.85;;;27.40;48.90;;;;;;5015806;28;20030;-13
2022/07/28 06:50:04;;;;;;;8.55;4.90;;;27.50;48.80;;;;;;5015085;28;20544;-12
2022/07/28 06:52:32;;;;;;;11.52;5.32;;;27.70;48.70;;;;;;5014784;28;20113;-12
2022/07/28 06:54:59;;;;;;;8.95;5.50;;;27.80;48.50;;;;;;5014837;28;20032;-12
2022/07/28 06:57:26;;;;;;;7.63;5.85;;;27.90;48.40;;;;;;5014954;28;20481;-14
2022/07/28 06:59:52;;;;;;;9.15;5.72;;;28.10;48.60;;;;;;5015135;28;20022;-12
2022/07/28 07:02:19;;;;;;;7.38;5.70;;;28.20;47.70;;;;;;5014689;28;20022;-12
2022/07/28 07:04:45;;;;;;;9.23;6.05;;;28.40;47.40;;;;;;5015089;28;20030;-12
2022/07/28 07:07:12;;;;;;;8.93;6.20;;;28.50;47.20;;;;;;5015148;28;20022;-12
2022/07/28 07:09:38;;;;;;;10.07;6.30;;;28.50;45.50;;;;;;5014936;28;20022;-14
2022/07/28 07:12:05;;;;;;;10.48;6.10;;;28.50;46.40;;;;;;5014644;28;20059;-12
2022/07/28 07:14:31;;;;;;;9.48;6.03;;;28.60;46.70;;;;;;5014542;28;20403;-12
2022/07/28 07:16:57;;;;;;;7.15;5.28;;;28.60;45.90;;;;;;5014576;28;20489;-12
2022/07/28 07:19:23;;;;;;;8.55;5.30;;;28.70;46.40;;;;;;5014837;28;20044;-13
2022/07/28 07:21:49;;;;;;;6.85;5.30;;;28.90;45.90;;;;;;5014752;28;20176;-12
2022/07/28 07:24:16;;;;;;;8.50;5.70;;;28.90;45.40;;;;;;5014222;28;20030;-13
2022/07/28 07:26:42;;;;;;;10.32;5.32;;;28.90;45.40;;;;;;5014820;28;20029;-12
2022/07/28 07:29:09;;;;;;;9.02;5.57;;;28.90;45.40;;;;;;5014470;28;20025;-12
2022/07/28 07:31:37;;;;;;;6.85;5.25;;;29.00;44.30;;;;;;5014266;28;20033;-12
2022/07/28 07:34:04;;;;;;;9.77;5.70;;;29.00;44.20;;;;;;5014230;28;20030;-12
2022/07/28 07:36:30;;;;;;;8.23;6.00;;;29.20;44.70;;;;;;5013567;28;20034;-13
2022/07/28 07:38:56;;;;;;;8.75;5.90;;;29.40;44.20;;;;;;5014019;28;20140;-12
2022/07/28 07:41:22;;;;;;;7.25;5.15;;;29.50;43.80;;;;;;5014399;28;20113;-12
2022/07/28 07:43:48;;;;;;;10.13;6.22;;;29.50;43.90;;;;;;5014425;28;20026;-12
2022/07/28 07:46:16;;;;;;;9.98;6.45;;;29.60;44.00;;;;;;5014055;28;20030;-14
2022/07/28 07:48:42;;;;;;;11.82;6.68;;;29.60;43.60;;;;;;5014491;28;20022;-14
2022/07/28 07:51:09;;;;;;;8.18;6.32;;;29.70;43.50;;;;;;5014384;28;20028;-13
2022/07/28 07:53:35;;;;;;;8.25;5.95;;;29.90;43.30;;;;;;5013798;28;20064;-12
2022/07/28 07:56:01;;;;;;;10.50;6.10;;;30.00;43.00;;;;;;5013801;28;20061;-13
2022/07/28 07:58:27;;;;;;;9.52;6.25;;;30.00;42.90;;;;;;5013975;28;20048;-14
2022/07/28 08:00:53;;;;;;;10.13;6.85;;;30.00;42.50;;;;;;5012598;28;20493;-12
2022/07/28 08:03:19;;;;;;;12.95;7.60;;;30.10;42.80;;;;;;5014232;28;20049;-12
2022/07/28 08:05:45;;;;;;;14.13;8.68;;;30.20;43.00;;;;;;5013808;28;20121;-14
2022/07/28 08:08:11;;;;;;;11.98;8.93;;;30.20;42.70;;;;;;5014143;28;20054;-14
2022/07/28 08:10:38;;;;;;;11.95;9.10;;;30.40;42.00;;;;;;5013634;28;20076;-14
2022/07/28 08:13:06;;;;;;;9.73;7.70;;;30.50;42.80;;;;;;5013825;28;20114;-13
2022/07/28 08:15:34;;;;;;;11.55;8.52;;;30.70;41.70;;;;;;5013578;28;20026;-12
2022/07/28 08:18:01;;;;;;;11.18;7.60;;;30.90;41.80;;;;;;5013581;28;20109;-14
2022/07/28 08:20:28;;;;;;;9.27;7.07;;;31.00;41.00;;;;;;5013414;28;20036;-12
2022/07/28 08:22:56;;;;;;;8.45;6.80;;;31.20;40.90;;;;;;5013766;28;20121;-14
2022/07/28 08:25:23;;;;;;;10.65;7.45;;;31.40;40.80;;;;;;5013378;28;20030;-12
2022/07/28 08:27:50;;;;;;;11.73;8.05;;;31.50;40.60;;;;;;5013825;28;20026;-12
2022/07/28 08:30:18;;;;;;;12.50;7.55;;;31.80;40.00;;;;;;5013331;28;20033;-13
2022/07/28 08:32:44;;;;;;;12.18;8.20;;;31.80;40.00;;;;;;5013394;28;20512;-12
2022/07/28 08:35:10;;;;;;;10.20;7.82;;;31.90;39.90;;;;;;5013714;28;20032;-14
2022/07/28 08:37:38;;;;;;;10.65;8.50;;;31.90;39.60;;;;;;5012144;28;20548;-14
2022/07/28 08:40:13;;;;;;;9.60;8.13;;;32.00;39.70;;;;;;5012893;28;20183;-13
2022/07/28 08:42:44;;;;;;;9.77;8.00;;;32.00;39.70;;;;;;5013701;28;20109;-12
2022/07/28 08:45:11;;;;;;;8.98;6.60;;;32.10;39.20;;;;;;5013335;28;20424;-13
2022/07/28 08:47:38;;;;;;;8.75;6.72;;;32.10;38.90;;;;;;5014228;28;20485;-12
2022/07/28 08:50:05;;;;;;;10.52;7.72;;;32.20;38.70;;;;;;5017295;28;20034;-12
2022/07/28 08:52:32;;;;;;;10.98;7.32;;;32.20;39.30;;;;;;5017369;28;20108;-12
2022/07/28 08:55:03;;;;;;;10.68;6.90;;;32.20;39.70;;;;;;5017517;28;20026;-13
2022/07/28 08:57:39;;;;;;;11.30;6.28;;;32.30;38.90;;;;;;5017340;28;20053;-12
2022/07/28 09:00:08;;;;;;;9.40;6.30;;;32.40;38.00;;;;;;5017756;28;20026;-12
2022/07/28 09:02:40;;;;;;;9.35;6.38;;;32.50;38.40;;;;;;5017128;28;20041;-12
2022/07/28 09:05:06;;;;;;;8.95;6.35;;;32.70;37.90;;;;;;5017358;28;20026;-12
2022/07/28 09:07:36;;;;;;;10.38;6.57;;;32.80;37.70;;;;;;5016954;28;20159;-12
2022/07/28 09:10:06;;;;;;;10.85;6.50;;;32.90;37.80;;;;;;5016893;28;20076;-12
2022/07/28 09:12:37;;;;;;;8.80;5.75;;;33.10;37.70;;;;;;5017062;28;20026;-12
2022/07/28 09:15:07;;;;;;;8.20;6.00;;;33.10;37.30;;;;;;5017284;28;20026;-12
2022/07/28 09:17:35;;;;;;;9.30;6.05;;;33.30;37.30;;;;;;5017111;28;20026;-12
2022/07/28 09:20:03;;;;;;;8.95;5.43;;;33.60;36.40;;;;;;5017090;28;20030;-12
2022/07/28 09:22:32;;;;;;;9.25;6.45;;;33.80;36.00;;;;;;5016811;28;20029;-13
2022/07/28 09:24:57;;;;;;;9.88;5.57;;;33.70;37.50;;;;;;5015395;28;20022;-13
2022/07/28 09:27:23;;;;;;;8.93;5.80;;;33.80;37.20;;;;;;5015862;28;20041;-13
2022/07/28 09:29:58;;;;;;;9.30;6.25;;;33.60;37.20;;;;;;5016681;28;20454;-11
2022/07/28 09:32:26;;;;;;;13.40;6.18;;;33.70;36.10;;;;;;5016527;28;20026;-12
2022/07/28 09:34:52;;;;;;;9.23;5.82;;;33.80;37.10;;;;;;5017044;28;20057;-12
2022/07/28 09:37:20;;;;;;;9.80;5.65;;;33.90;37.30;;;;;;5015244;28;20029;-12
2022/07/28 09:39:48;;;;;;;8.52;5.72;;;33.90;37.30;;;;;;5015511;28;20449;-12
2022/07/28 09:42:17;;;;;;;8.60;5.40;;;34.10;36.10;;;;;;5013775;28;20030;-12
2022/07/28 09:44:44;;;;;;;6.72;5.53;;;34.20;37.00;;;;;;5015036;28;20018;-14
2022/07/28 09:47:32;;;;;;;8.18;5.97;;;34.20;35.90;;;;;;5015347;28;20026;-13
2022/07/28 09:49:58;;;;;;;10.75;6.18;;;34.30;34.90;;;;;;5015373;28;20026;-12
2022/07/28 09:52:32;;;;;;;9.50;5.63;;;34.10;36.30;;;;;;5013587;28;20030;-12
2022/07/28 09:55:02;;;;;;;7.90;6.18;;;34.20;35.40;;;;;;5015028;28;20390;-12
2022/07/28 09:57:29;;;;;;;10.68;6.25;;;34.40;34.90;;;;;;5014958;28;20121;-12
2022/07/28 09:59:56;;;;;;;10.30;6.57;;;34.60;34.90;;;;;;5014674;28;20022;-12
2022/07/28 10:02:24;;;;;;;8.50;6.88;;;34.50;34.60;;;;;;5015043;28;20030;-12
2022/07/28 10:04:52;;;;;;;7.88;6.53;;;34.50;34.40;;;;;;5014837;28;20505;-12
2022/07/28 10:07:19;;;;;;;9.20;6.85;;;34.70;34.80;;;;;;5015196;28;20049;-13
2022/07/28 10:10:06;;;;;;;10.35;7.10;;;34.90;34.30;;;;;;5015047;28;20026;-12
2022/07/28 10:12:34;;;;;;;10.80;7.25;;;34.90;34.20;;;;;;5014712;28;20022;-13
2022/07/28 10:17:59;;;;;;;16.48;7.30;;;35.10;34.30;;;;;;5015082;28;20040;-12
2022/07/28 10:20:27;;;;;;;12.20;7.32;;;35.20;35.10;;;;;;5014355;28;20029;-12
2022/07/28 10:23:04;;;;;;;12.60;6.95;;;35.30;34.60;;;;;;5015010;28;20033;-13
2022/07/28 10:25:32;;;;;;;9.45;7.93;;;35.40;34.90;;;;;;5014479;28;20539;-12
2022/07/28 10:28:00;;;;;;;10.55;7.55;;;35.40;34.60;;;;;;5014736;28;20072;-12
2022/07/28 10:30:34;;;;;;;9.77;6.85;;;35.60;34.10;;;;;;5014170;28;20168;-13
2022/07/28 10:33:04;;;;;;;12.13;7.80;;;35.80;33.80;;;;;;5014690;28;20033;-12
2022/07/28 10:35:32;;;;;;;11.00;7.90;;;36.20;33.40;;;;;;5014467;28;20486;-12
2022/07/28 10:38:03;;;;;;;9.82;8.23;;;36.30;31.90;;;;;;5014275;28;20026;-12
2022/07/28 10:40:34;;;;;;;14.13;9.02;;;36.60;33.30;;;;;;4962127;28;1531361;-12
2022/07/28 10:43:01;;;;;;;11.57;7.88;;;36.70;32.30;;;;;;5015619;28;20109;-13
2022/07/28 10:45:28;;;;;;;10.68;7.90;;;36.90;32.10;;;;;;5015452;28;20026;-12
2022/07/28 10:47:54;;;;;;;8.82;6.70;;;37.00;32.30;;;;;;5015373;28;20036;-11
2022/07/28 10:50:21;;;;;;;8.60;6.60;;;36.90;31.50;;;;;;5014759;28;20113;-11
2022/07/28 10:52:48;;;;;;;10.05;6.90;;;37.20;31.60;;;;;;5015039;28;20065;-13
2022/07/28 10:55:32;;;;;;;9.73;6.78;;;37.10;31.70;;;;;;5014917;28;20038;-13
2022/07/28 10:58:22;;;;;;;9.02;6.32;;;37.20;31.60;;;;;;5015047;28;20068;-12
2022/07/28 11:00:50;;;;;;;7.00;6.10;;;37.30;31.10;;;;;;5015202;28;20385;-13
2022/07/28 11:03:35;;;;;;;9.70;6.60;;;37.50;31.00;;;;;;5015170;28;20022;-13
2022/07/28 11:06:25;;;;;;;12.02;6.20;;;37.40;30.70;;;;;;5014787;28;20498;-13
2022/07/28 11:08:55;;;;;;;11.13;7.20;;;37.80;30.90;;;;;;5015210;28;20145;-13
2022/07/28 11:11:45;;;;;;;9.98;7.68;;;37.50;30.90;;;;;;5013894;28;20525;-13
2022/07/28 11:14:24;;;;;;;10.52;7.00;;;38.00;30.00;;;;;;5014530;28;20507;-12
2022/07/28 11:17:05;;;;;;;10.30;7.43;;;38.40;30.20;;;;;;5014556;28;20030;-13
2022/07/28 11:19:43;;;;;;;10.32;6.97;;;38.70;29.80;;;;;;5014594;28;20041;-12
2022/07/28 11:22:18;;;;;;;8.68;6.25;;;38.70;29.60;;;;;;5014828;28;20100;-13
2022/07/28 11:24:56;;;;;;;6.97;6.07;;;38.70;29.80;;;;;;5014723;28;20034;-13
2022/07/28 11:27:41;;;;;;;9.13;6.88;;;38.90;30.10;;;;;;5014572;28;20021;-13
2022/07/28 11:30:30;;;;;;;8.38;6.40;;;39.10;29.80;;;;;;5014351;28;20460;-13
2022/07/28 11:32:57;;;;;;;9.23;6.68;;;39.40;28.70;;;;;;5013800;28;20061;-12
2022/07/28 11:35:28;;;;;;;11.40;6.82;;;39.90;29.00;;;;;;5014553;28;20498;-13
2022/07/28 11:38:00;;;;;;;9.90;6.97;;;40.30;28.10;;;;;;5014609;28;20026;-13
2022/07/28 11:40:34;;;;;;;8.15;6.70;;;40.40;28.20;;;;;;5013767;28;20462;-13
2022/07/28 11:43:30;;;;;;;9.40;7.35;;;40.80;27.70;;;;;;5014071;28;20038;-12
2022/07/28 11:46:07;;;;;;;9.18;6.88;;;40.80;26.60;;;;;;5014573;28;20026;-12
2022/07/28 11:48:35;;;;;;;9.68;7.40;;;41.00;27.50;;;;;;5014223;28;20143;-12
2022/07/28 11:51:03;;;;;;;8.88;6.88;;;40.90;27.20;;;;;;5014262;28;20030;-12
2022/07/28 11:53:47;;;;;;;11.48;7.55;;;40.90;27.00;;;;;;5013850;28;20125;-12
2022/07/28 11:56:23;;;;;;;10.40;7.22;;;41.20;26.40;;;;;;5013808;28;20069;-11
2022/07/28 11:58:58;;;;;;;8.45;7.07;;;41.20;26.60;;;;;;5013933;28;20033;-13
2022/07/28 12:01:24;;;;;;;7.68;6.50;;;41.30;26.80;;;;;;5014082;28;20029;-12
2022/07/28 12:03:55;;;;;;;8.00;6.72;;;41.40;26.70;;;;;;5013783;28;20022;-13
2022/07/28 12:06:23;;;;;;;7.50;6.65;;;41.10;26.90;;;;;;5013955;28;20030;-13
2022/07/28 12:09:03;;;;;;;9.55;7.35;;;40.90;27.30;;;;;;5013998;28;20034;-12
2022/07/28 12:11:35;;;;;;;9.05;6.78;;;40.60;26.50;;;;;;5012458;28;20033;-12
2022/07/28 12:14:05;;;;;;;11.60;7.03;;;40.10;27.20;;;;;;5013680;28;20437;-13
2022/07/28 12:16:33;;;;;;;8.43;6.30;;;40.10;27.20;;;;;;5013380;28;20033;-13
2022/07/28 12:19:00;;;;;;;9.20;6.40;;;40.20;27.70;;;;;;5013919;28;20026;-12
2022/07/28 12:21:43;;;;;;;9.70;6.90;;;40.70;27.30;;;;;;5013596;28;20022;-12
2022/07/28 12:24:13;;;;;;;8.40;6.57;;;40.90;26.40;;;;;;5013474;28;20033;-12
2022/07/28 12:26:41;;;;;;;7.68;6.38;;;40.90;27.10;;;;;;5013726;28;20033;-13
2022/07/28 12:29:12;;;;;;;9.77;5.97;;;40.70;27.00;;;;;;5013417;28;20022;-12
2022/07/28 12:31:49;;;;;;;7.55;5.90;;;40.40;27.10;;;;;;5013683;28;20101;-12
2022/07/28 12:34:15;;;;;;;7.72;5.55;;;40.60;26.20;;;;;;5013440;28;20068;-12
2022/07/28 12:36:42;;;;;;;6.75;5.35;;;40.50;26.80;;;;;;5013374;28;20481;-13
2022/07/28 12:39:09;;;;;;;8.13;5.47;;;40.90;26.40;;;;;;5012224;28;20038;-13
2022/07/28 12:41:39;;;;;;;9.27;5.55;;;40.50;27.30;;;;;;5013323;28;20042;-12
2022/07/28 12:44:05;;;;;;;7.47;5.28;;;40.60;27.50;;;;;;5013431;28;20080;-12
2022/07/28 12:46:32;;;;;;;6.78;5.63;;;40.80;27.20;;;;;;5013121;28;20033;-11
2022/07/28 12:48:59;;;;;;;8.00;5.78;;;40.90;26.90;;;;;;5013702;28;20025;-12
2022/07/28 12:51:36;;;;;;;7.00;5.32;;;40.40;27.30;;;;;;5013487;28;20030;-12
2022/07/28 12:54:05;;;;;;;7.07;5.30;;;40.40;27.10;;;;;;5013509;28;20041;-12
2022/07/28 12:56:44;;;;;;;6.78;5.00;;;40.90;27.10;;;;;;5012857;28;20037;-12
2022/07/28 12:59:12;;;;;;;5.82;4.90;;;41.40;26.20;;;;;;5013255;28;20054;-12
2022/07/28 13:01:55;;;;;;;6.75;5.18;;;41.40;26.40;;;;;;5013530;28;20026;-12
2022/07/28 13:04:42;;;;;;;8.35;5.18;;;41.80;25.90;;;;;;5012967;28;20022;-13